createdAt,value
2023-04-16T00:00:39.755Z,100901.88
2023-04-16T00:03:07.696Z,100894.06
2023-04-16T00:05:35.763Z,100911.41
2023-04-16T00:08:03.658Z,100907.06
2023-04-16T00:10:31.622Z,100913.84
2023-04-16T00:12:59.387Z,100909.81
2023-04-16T00:15:27.232Z,100908.41
2023-04-16T00:17:55.005Z,100908.06
2023-04-16T00:20:22.780Z,100911.16
2023-04-16T00:22:51.492Z,100912.75
2023-04-16T00:25:19.222Z,100912.41
2023-04-16T00:27:46.997Z,100916.38
2023-04-16T00:30:15.101Z,100910.84
2023-04-16T00:32:43.830Z,100916.53
2023-04-16T00:35:11.685Z,100924.31
2023-04-16T00:37:39.594Z,100912.16
2023-04-16T00:40:08.082Z,100915.09
2023-04-16T00:42:37.193Z,100920.66
2023-04-16T00:45:06.009Z,100925.47
2023-04-16T00:47:34.279Z,100916.78
2023-04-16T00:50:04.470Z,100921.97
2023-04-16T00:52:33.389Z,100916.75
2023-04-16T00:55:01.559Z,100916.38
2023-04-16T00:57:30.956Z,100913.38
2023-04-16T00:59:59.208Z,100918.91
2023-04-16T01:02:27.456Z,100911.06
2023-04-16T01:04:55.889Z,100916.09
2023-04-16T01:07:23.678Z,100907.56
2023-04-16T01:09:51.445Z,100912.06
2023-04-16T01:12:20.294Z,100906.00
2023-04-16T01:14:48.094Z,100901.44
2023-04-16T01:17:16.104Z,100904.38
2023-04-16T01:19:43.831Z,100902.66
2023-04-16T01:22:14.565Z,100904.72
2023-04-16T01:24:42.430Z,100913.91
2023-04-16T01:27:11.685Z,100903.13
2023-04-16T01:29:39.399Z,100914.22
2023-04-16T01:32:07.414Z,100905.19
2023-04-16T01:34:37.690Z,100913.53
2023-04-16T01:37:05.605Z,100908.31
2023-04-16T01:39:33.322Z,100911.09
2023-04-16T01:42:01.529Z,100912.13
2023-04-16T01:44:30.991Z,100914.09
2023-04-16T01:46:58.940Z,100904.56
2023-04-16T01:49:26.807Z,100911.66
2023-04-16T01:51:54.488Z,100912.06
2023-04-16T01:54:22.227Z,100913.81
2023-04-16T01:56:50.052Z,100917.44
2023-04-16T01:59:21.371Z,100915.53
2023-04-16T02:01:51.962Z,100915.41
2023-04-16T02:04:19.781Z,100930.81
2023-04-16T02:06:47.531Z,100916.25
2023-04-16T02:09:15.740Z,100919.03
2023-04-16T02:11:43.995Z,100924.06
2023-04-16T02:14:11.826Z,100919.75
2023-04-16T02:16:39.625Z,100915.94
2023-04-16T02:19:16.976Z,100920.25
2023-04-16T02:21:44.813Z,100909.50
2023-04-16T02:24:12.593Z,100918.16
2023-04-16T02:26:42.894Z,100908.41
2023-04-16T02:29:16.645Z,100914.31
2023-04-16T02:31:50.640Z,100917.94
2023-04-16T02:34:19.351Z,100913.97
2023-04-16T02:36:47.060Z,100913.28
2023-04-16T02:39:14.766Z,100915.00
2023-04-16T02:41:42.540Z,100920.06
2023-04-16T02:44:10.384Z,100918.00
2023-04-16T02:46:38.023Z,100923.03
2023-04-16T02:49:05.819Z,100919.09
2023-04-16T02:51:33.585Z,100926.03
2023-04-16T02:54:01.311Z,100916.66
2023-04-16T02:56:29.377Z,100926.63
2023-04-16T02:58:57.106Z,100933.09
2023-04-16T03:01:25.261Z,100932.09
2023-04-16T03:03:53.214Z,100923.97
2023-04-16T03:06:21.222Z,100922.28
2023-04-16T03:08:49.005Z,100922.88
2023-04-16T03:11:17.098Z,100926.03
2023-04-16T03:13:47.952Z,100935.28
2023-04-16T03:16:15.780Z,100927.84
2023-04-16T03:18:43.686Z,100923.91
2023-04-16T03:21:14.286Z,100925.34
2023-04-16T03:23:42.253Z,100920.44
2023-04-16T03:26:09.962Z,100915.81
2023-04-16T03:28:37.699Z,100908.53
2023-04-16T03:31:35.684Z,100923.59
2023-04-16T03:34:03.596Z,100916.59
2023-04-16T03:36:48.537Z,100910.50
2023-04-16T03:39:16.535Z,100905.34
2023-04-16T03:41:44.270Z,100905.75
2023-04-16T03:44:12.183Z,100906.88
2023-04-16T03:46:40.153Z,100911.06
2023-04-16T03:49:08.896Z,100908.34
2023-04-16T03:51:36.804Z,100904.72
2023-04-16T03:54:04.963Z,100899.00
2023-04-16T03:56:33.558Z,100902.81
2023-04-16T03:59:01.748Z,100897.53
2023-04-16T04:01:30.695Z,100903.84
2023-04-16T04:03:59.028Z,100893.81
2023-04-16T04:06:27.592Z,100888.25
2023-04-16T04:08:55.472Z,100883.75
2023-04-16T04:11:23.247Z,100890.66
2023-04-16T04:13:51.395Z,100882.34
2023-04-16T04:16:22.262Z,100880.84
2023-04-16T04:18:50.294Z,100894.44
2023-04-16T04:21:22.292Z,100877.81
2023-04-16T04:23:53.914Z,100869.50
2023-04-16T04:26:22.299Z,100883.88
2023-04-16T04:28:50.103Z,100878.81
2023-04-16T04:31:19.145Z,100876.63
2023-04-16T04:33:48.024Z,100875.53
2023-04-16T04:36:18.545Z,100875.22
2023-04-16T04:38:49.193Z,100883.41
2023-04-16T04:41:17.273Z,100884.53
2023-04-16T04:43:47.709Z,100879.50
2023-04-16T04:46:15.921Z,100873.84
2023-04-16T04:48:43.686Z,100880.81
2023-04-16T04:51:11.786Z,100882.16
2023-04-16T04:53:39.583Z,100880.38
2023-04-16T04:56:12.122Z,100864.00
2023-04-16T04:58:44.359Z,100861.00
2023-04-16T05:01:12.990Z,100875.09
2023-04-16T05:03:40.941Z,100865.44
2023-04-16T05:06:08.873Z,100876.47
2023-04-16T05:08:36.717Z,100878.84
2023-04-16T05:11:04.669Z,100888.53
2023-04-16T05:13:32.487Z,100885.63
2023-04-16T05:16:00.445Z,100880.19
2023-04-16T05:18:28.299Z,100884.66
2023-04-16T05:20:56.244Z,100891.75
2023-04-16T05:23:24.021Z,100893.44
2023-04-16T05:25:51.901Z,100890.75
2023-04-16T05:28:19.815Z,100878.97
2023-04-16T05:30:47.662Z,100883.41
2023-04-16T05:33:15.543Z,100867.78
2023-04-16T05:35:43.312Z,100883.69
2023-04-16T05:38:13.059Z,100868.06
2023-04-16T05:40:40.796Z,100878.88
2023-04-16T05:43:08.533Z,100870.13
2023-04-16T05:45:41.125Z,100874.13
2023-04-16T05:48:09.523Z,100874.88
2023-04-16T05:50:37.780Z,100867.03
2023-04-16T05:53:09.504Z,100877.47
2023-04-16T05:55:37.376Z,100873.09
2023-04-16T05:58:07.166Z,100870.97
2023-04-16T06:00:35.136Z,100874.34
2023-04-16T06:03:03.868Z,100861.81
2023-04-16T06:05:31.965Z,100868.84
2023-04-16T06:07:59.777Z,100856.81
2023-04-16T06:10:28.252Z,100863.44
2023-04-16T06:12:56.385Z,100853.53
2023-04-16T06:15:27.140Z,100857.81
2023-04-16T06:18:00.681Z,100858.31
2023-04-16T06:20:28.851Z,100845.50
2023-04-16T06:22:59.539Z,100851.72
2023-04-16T06:25:27.311Z,100859.78
2023-04-16T06:27:55.155Z,100852.22
2023-04-16T06:30:22.866Z,100844.94
2023-04-16T06:32:50.772Z,100848.84
2023-04-16T06:35:20.370Z,100859.47
2023-04-16T06:37:48.297Z,100868.38
2023-04-16T06:40:16.129Z,100860.03
2023-04-16T06:42:46.546Z,100859.28
2023-04-16T06:45:14.378Z,100860.88
2023-04-16T06:47:42.221Z,100868.03
2023-04-16T06:50:10.463Z,100863.44
2023-04-16T06:52:40.747Z,100858.00
2023-04-16T06:55:09.928Z,100857.06
2023-04-16T06:57:37.919Z,100848.56
2023-04-16T07:00:06.350Z,100851.28
2023-04-16T07:02:34.387Z,100853.88
2023-04-16T07:05:02.278Z,100847.75
2023-04-16T07:07:31.497Z,100859.41
2023-04-16T07:09:59.965Z,100859.81
2023-04-16T07:12:27.778Z,100861.13
2023-04-16T07:14:55.946Z,100852.63
2023-04-16T07:17:23.724Z,100855.75
2023-04-16T07:19:52.148Z,100848.56
2023-04-16T07:22:20.484Z,100841.94
2023-04-16T07:24:48.219Z,100852.84
2023-04-16T07:27:16.955Z,100842.47
2023-04-16T07:29:46.070Z,100846.09
2023-04-16T07:32:15.477Z,100834.09
2023-04-16T07:34:43.729Z,100840.28
2023-04-16T07:37:11.516Z,100847.31
2023-04-16T07:39:39.396Z,100844.59
2023-04-16T07:42:07.263Z,100844.69
2023-04-16T07:44:35.009Z,100840.59
2023-04-16T07:47:04.842Z,100841.81
2023-04-16T07:49:54.758Z,100842.66
2023-04-16T07:52:22.562Z,100843.34
2023-04-16T07:54:51.774Z,100842.13
2023-04-16T07:57:19.862Z,100828.75
2023-04-16T07:59:47.594Z,100830.13
2023-04-16T08:02:16.715Z,100843.78
2023-04-16T08:04:45.089Z,100838.50
2023-04-16T08:07:13.148Z,100814.53
2023-04-16T08:09:51.745Z,100822.47
2023-04-16T08:12:21.025Z,100829.38
2023-04-16T08:14:49.098Z,100825.88
2023-04-16T08:17:16.841Z,100818.41
2023-04-16T08:19:45.429Z,100819.84
2023-04-16T08:22:13.758Z,100812.50
2023-04-16T08:24:41.858Z,100812.69
2023-04-16T08:27:19.380Z,100811.41
2023-04-16T08:29:48.536Z,100807.56
2023-04-16T08:32:16.418Z,100817.47
2023-04-16T08:34:44.327Z,100799.41
2023-04-16T08:37:12.093Z,100799.34
2023-04-16T08:39:40.025Z,100800.91
2023-04-16T08:42:13.684Z,100799.56
2023-04-16T08:44:44.630Z,100798.38
2023-04-16T08:47:12.947Z,100787.19
2023-04-16T08:49:45.262Z,100793.44
2023-04-16T08:52:19.952Z,100787.94
2023-04-16T08:54:58.475Z,100796.00
2023-04-16T08:57:31.692Z,100782.63
2023-04-16T08:59:59.784Z,100785.66
2023-04-16T09:02:28.192Z,100784.13
2023-04-16T09:04:56.811Z,100785.97
2023-04-16T09:07:24.801Z,100787.88
2023-04-16T09:09:53.628Z,100786.53
2023-04-16T09:12:24.186Z,100777.84
2023-04-16T09:14:51.998Z,100781.41
2023-04-16T09:17:19.885Z,100776.47
2023-04-16T09:19:47.935Z,100777.91
2023-04-16T09:22:17.290Z,100769.66
2023-04-16T09:24:45.045Z,100773.63
2023-04-16T09:27:13.304Z,100772.06
2023-04-16T09:29:41.800Z,100782.53
2023-04-16T09:32:11.737Z,100772.19
2023-04-16T09:34:55.743Z,100779.41
2023-04-16T09:37:24.064Z,100780.28
2023-04-16T09:39:57.661Z,100777.41
2023-04-16T09:42:27.544Z,100775.56
2023-04-16T09:44:58.658Z,100768.53
2023-04-16T09:47:40.200Z,100777.72
2023-04-16T09:50:11.260Z,100769.19
2023-04-16T09:52:40.484Z,100761.28
2023-04-16T09:55:10.859Z,100768.53
2023-04-16T09:57:44.737Z,100770.50
2023-04-16T10:00:13.154Z,100757.03
2023-04-16T10:02:42.637Z,100748.34
2023-04-16T10:05:16.874Z,100744.00
2023-04-16T10:07:44.999Z,100756.22
2023-04-16T10:10:12.775Z,100763.50
2023-04-16T10:12:40.789Z,100752.78
2023-04-16T10:15:08.894Z,100759.25
2023-04-16T10:17:37.316Z,100748.72
2023-04-16T10:20:09.385Z,100744.94
2023-04-16T10:22:39.727Z,100747.50
2023-04-16T10:25:08.634Z,100738.00
2023-04-16T10:27:37.415Z,100750.34
2023-04-16T10:30:07.236Z,100727.38
2023-04-16T10:32:35.771Z,100743.50
2023-04-16T10:35:03.935Z,100730.44
2023-04-16T10:37:35.512Z,100736.94
2023-04-16T10:40:25.313Z,100731.16
2023-04-16T10:42:57.949Z,100734.47
2023-04-16T10:45:35.209Z,100718.59
2023-04-16T10:48:10.133Z,100716.53
2023-04-16T10:50:38.461Z,100722.88
2023-04-16T10:53:27.317Z,100727.56
2023-04-16T10:56:08.566Z,100717.53
2023-04-16T10:58:47.997Z,100716.34
2023-04-16T11:01:16.941Z,100724.81
2023-04-16T11:03:47.542Z,100727.06
2023-04-16T11:06:26.805Z,100716.53
2023-04-16T11:09:06.304Z,100721.22
2023-04-16T11:11:39.697Z,100704.06
2023-04-16T11:14:08.416Z,100706.91
2023-04-16T11:16:36.310Z,100702.75
2023-04-16T11:19:04.115Z,100706.28
2023-04-16T11:21:32.699Z,100711.22
2023-04-16T11:24:00.471Z,100700.31
2023-04-16T11:26:30.814Z,100693.28
2023-04-16T11:29:00.345Z,100689.88
2023-04-16T11:31:28.302Z,100690.38
2023-04-16T11:33:56.972Z,100695.34
2023-04-16T11:36:26.956Z,100680.88
2023-04-16T11:39:02.200Z,100689.44
2023-04-16T11:41:30.041Z,100687.09
2023-04-16T11:43:58.005Z,100681.28
2023-04-16T11:46:38.881Z,100671.13
2023-04-16T11:49:06.754Z,100681.63
2023-04-16T11:51:42.799Z,100668.81
2023-04-16T11:54:12.190Z,100661.09
2023-04-16T11:56:46.977Z,100660.25
2023-04-16T11:59:17.643Z,100666.50
2023-04-16T12:01:55.829Z,100662.50
2023-04-16T12:04:26.361Z,100652.06
2023-04-16T12:07:14.322Z,100650.34
2023-04-16T12:09:44.294Z,100650.28
2023-04-16T12:12:26.615Z,100651.38
2023-04-16T12:14:56.889Z,100653.78
2023-04-16T12:17:24.963Z,100646.69
2023-04-16T12:20:00.877Z,100644.97
2023-04-16T12:22:28.646Z,100645.91
2023-04-16T12:24:59.906Z,100629.66
2023-04-16T12:27:53.366Z,100627.56
2023-04-16T12:30:23.194Z,100635.25
2023-04-16T12:32:52.743Z,100637.69
2023-04-16T12:35:33.944Z,100632.91
2023-04-16T12:38:01.747Z,100630.34
2023-04-16T12:40:29.526Z,100628.78
2023-04-16T12:42:57.685Z,100614.34
2023-04-16T12:45:25.765Z,100610.00
2023-04-16T12:47:53.644Z,100609.75
2023-04-16T12:50:21.833Z,100608.63
2023-04-16T12:52:49.655Z,100613.53
2023-04-16T12:55:20.838Z,100600.47
2023-04-16T12:57:49.503Z,100600.94
2023-04-16T13:00:22.661Z,100599.91
2023-04-16T13:02:50.383Z,100607.06
2023-04-16T13:05:19.440Z,100595.13
2023-04-16T13:07:47.407Z,100593.81
2023-04-16T13:10:15.257Z,100592.72
2023-04-16T13:12:45.473Z,100591.88
2023-04-16T13:15:13.274Z,100597.00
2023-04-16T13:17:41.164Z,100597.00
2023-04-16T13:20:09.546Z,100576.31
2023-04-16T13:22:41.469Z,100587.56
2023-04-16T13:25:09.991Z,100584.09
2023-04-16T13:27:40.483Z,100582.78
2023-04-16T20:37:48.551Z,100509.03
2023-04-16T20:40:16.556Z,100499.34
2023-04-16T20:42:46.920Z,100495.69
2023-04-16T20:45:14.724Z,100500.41
2023-04-16T20:47:43.560Z,100489.63
2023-04-16T20:50:12.219Z,100501.94
2023-04-16T20:52:40.026Z,100497.84
2023-04-16T20:55:08.694Z,100499.34
2023-04-16T20:57:42.174Z,100495.22
2023-04-16T21:00:11.674Z,100505.59
2023-04-16T21:02:39.706Z,100501.69
2023-04-16T21:05:16.715Z,100493.53
2023-04-16T21:07:44.498Z,100498.50
2023-04-16T21:10:12.251Z,100502.38
2023-04-16T21:12:39.991Z,100497.41
2023-04-16T21:15:08.112Z,100492.69
2023-04-16T21:17:38.708Z,100494.00
2023-04-16T21:20:10.756Z,100501.53
2023-04-16T21:22:38.490Z,100491.41
2023-04-16T21:25:07.005Z,100495.47
2023-04-16T21:27:34.643Z,100496.34
2023-04-16T21:30:02.466Z,100492.25
2023-04-16T21:32:31.540Z,100498.72
2023-04-16T21:34:59.683Z,100496.75
2023-04-16T21:37:27.401Z,100501.50
2023-04-16T21:39:55.101Z,100502.59
2023-04-16T21:42:22.787Z,100506.25
2023-04-16T21:44:50.574Z,100504.09
2023-04-16T21:47:18.712Z,100510.78
2023-04-16T21:49:46.574Z,100509.69
2023-04-16T21:52:14.279Z,100516.16
2023-04-16T21:54:42.108Z,100508.63
2023-04-16T21:57:10.108Z,100507.75
2023-04-16T21:59:38.521Z,100509.91
2023-04-16T22:02:06.582Z,100509.50
2023-04-16T22:04:40.268Z,100508.41
2023-04-16T22:07:11.847Z,100506.03
2023-04-16T22:09:40.886Z,100512.72
2023-04-16T22:12:11.510Z,100513.16
2023-04-16T22:14:46.227Z,100498.06
2023-04-16T22:17:17.273Z,100508.19
2023-04-16T22:19:45.243Z,100494.16
2023-04-16T22:22:13.562Z,100509.25
2023-04-16T22:24:41.339Z,100512.28
2023-04-16T22:27:09.157Z,100506.69
2023-04-16T22:29:38.122Z,100502.16
2023-04-16T22:32:06.187Z,100512.28
2023-04-16T22:34:34.204Z,100507.31
2023-04-16T22:37:03.192Z,100504.50
2023-04-16T22:39:31.772Z,100512.69
2023-04-16T22:41:59.683Z,100518.50
2023-04-16T22:44:27.438Z,100515.06
2023-04-16T22:46:55.254Z,100506.44
2023-04-16T22:49:23.068Z,100516.16
2023-04-16T22:51:50.880Z,100516.16
2023-04-16T22:54:18.596Z,100521.97
2023-04-16T22:56:46.975Z,100522.16
2023-04-16T22:59:14.726Z,100515.50
2023-04-16T23:01:42.941Z,100511.84
2023-04-16T23:04:11.165Z,100510.31
2023-04-16T23:06:40.650Z,100506.88
2023-04-16T23:09:09.009Z,100518.06
2023-04-16T23:11:36.945Z,100519.56
2023-04-16T23:14:05.147Z,100513.97
2023-04-16T23:16:32.900Z,100514.41
2023-04-16T23:19:00.575Z,100520.63
2023-04-16T23:21:28.255Z,100512.00
2023-04-16T23:23:57.241Z,100511.78
2023-04-16T23:26:25.016Z,100508.53
2023-04-16T23:28:52.812Z,100511.97
2023-04-16T23:31:20.740Z,100513.22
2023-04-16T23:33:48.488Z,100507.00
2023-04-16T23:36:16.551Z,100510.44
2023-04-16T23:38:44.246Z,100509.13
2023-04-16T23:41:12.082Z,100506.75
2023-04-16T23:43:40.848Z,100497.25
2023-04-16T23:46:08.688Z,100502.41
2023-04-16T23:48:36.589Z,100499.81
2023-04-16T23:51:04.563Z,100503.69
2023-04-16T23:53:32.348Z,100499.38
2023-04-16T23:56:00.322Z,100504.34
2023-04-16T23:58:28.143Z,100506.06
